KSLB/SLB METAR and TAF weather

Enter ICAO airport designator
Station Type Date Time Source
KSLB METAR 2020/04/05 07:15 UTC NOAA

KSLB 050715Z AUTO 15007KT 10SM CLR M01/M03 A3007 RMK AO2


Station Type Date Time Source
KSLB Decoded METAR 2020/04/05 07:15 UTC NOAA

Storm Lake, IA, United States (KSLB) 42-36N 095-14W
Apr 05, 2020 - 03:15 AM EDT / 2020.04.05 0715 UTC
Wind: from the SSE (150 degrees) at 8 MPH (7 KT):0
Visibility: 10 mile(s):0
Sky conditions: clear
Temperature: 30 F (-1 C)
Windchill: 23 F (-5 C):1
Dew Point: 26 F (-3 C)
Relative Humidity: 86%
Pressure (altimeter): 30.07 in. Hg (1018 hPa)
ob: KSLB 050715Z AUTO 15007KT 10SM CLR M01/M03 A3007 RMK AO2
cycle: 7

Station Type Date Time Source
KSLB TAF UTC NOAA

Error!

Example: see airport list